Station: Whyalla

  Atmospheric Gas Attenuation - ITU Rec 676-11   --------------- db/100km ---------------
Date Time Temp RH % AH g/m3 Dew Point Wind Direction Speed kph Gust kph Barometer mB Rainfall Since 9am 24GHz 47GHz 76GHz 122GHz 134GHz 241GHz
24 19:20 31.6 40 13.22 16.7 15 19 1000.6 0 28.3 27.3 47.2 124.6 129.3 448.9
24 19:10 34.4 26 9.97 12.1 20 22 1000.4 0 21.5 22.0 34.7 91.4 89.3 309.0
24 19:00 33.9 28 10.46 12.8 28 39 1000.1 0 22.5 22.8 36.5 96.1 95.0 328.9
24 18:50 35 24 9.49 11.4 28 33 999.8 0 20.5 21.3 33.0 86.7 83.7 289.3
24 18:40 40.9 10 5.34 3.3 19 24 999.7 0 11.8 15.5 19.7 51.2 41.4 141.2
24 18:30 41.3 10 5.45 3.6 19 24 999.6 0 12.0 15.5 19.9 51.7 42.1 143.7
24 18:20 41.5 10 5.51 3.7 19 20 999.5 0 12.1 15.5 20.0 52.0 42.5 145.1
24 18:10 41.5 10 5.51 3.7 19 22 999.6 0 12.1 15.5 20.0 52.0 42.5 145.1
24 18:00 41.5 10 5.51 3.7 24 32 999.6 0 12.1 15.5 20.0 52.0 42.5 145.1
24 17:50 41.7 10 5.56 3.9 22 28 999.6 0 12.2 15.6 20.0 52.2 42.8 146.2
24 17:40 41.6 10 5.53 3.8 19 20 999.6 0 12.2 15.5 20.0 52.1 42.6 145.5
24 17:30 41.6 10 5.53 3.8 19 24 999.7 0 12.2 15.5 20.0 52.1 42.6 145.5
24 17:20 41.7 10 5.56 3.9 17 20 999.8 0 12.2 15.6 20.1 52.2 42.8 146.3
24 17:10 42.1 10 5.67 4.2 19 22 999.9 0 12.4 15.6 20.2 52.7 43.5 148.8
24 17:00 41.9 10 5.62 4 15 26 999.9 0 12.4 15.6 20.2 52.5 43.2 147.7
24 16:50 41.9 10 5.62 4 13 15 1000.1 0 12.4 15.6 20.2 52.5 43.2 147.7
24 16:40 42.1 10 5.67 4.2 15 20 1000.2 0 12.4 15.6 20.2 52.8 43.5 148.8
24 16:30 42.2 9 5.13 2.8 17 24 1000.3 0 11.4 15.1 18.9 49.2 39.1 133.2
24 16:20 41.8 10 5.59 4 15 19 1000.3 0 12.3 15.6 20.1 52.4 43.0 147.0
24 16:10 42.3 10 5.73 4.3 24 32 1000.4 0 12.6 15.7 20.4 53.0 43.9 150.2
24 16:00 42.2 10 5.7 4.3 17 33 1000.6 0 12.5 15.6 20.3 52.9 43.7 149.6
24 15:50 43 10 5.93 4.9 32 35 1000.7 0 12.9 15.8 20.7 54.0 45.2 154.8
24 15:40 43 10 5.93 4.9 13 19 1000.8 0 12.9 15.8 20.7 54.0 45.2 154.9
24 15:30 42.1 10 5.67 4.2 24 39 1001.2 0 12.4 15.6 20.3 52.8 43.6 148.9
24 15:20 42.4 10 5.76 4.4 28 35 1001.3 0 12.6 15.7 20.4 53.2 44.1 151.1
24 15:10 42.5 10 5.78 4.5 30 35 1001.5 0 12.7 15.7 20.5 53.3 44.3 151.5
24 15:00 43.1 10 5.96 4.9 26 37 1001.7 0 13.0 15.8 20.8 54.2 45.4 155.7
24 14:50 42.2 10 5.7 4.3 24 30 1001.8 0 12.5 15.7 20.3 53.0 43.8 149.7
24 14:40 42.6 10 5.81 4.6 24 28 1002 0 12.7 15.7 20.5 53.5 44.5 152.2
24 14:30 42.1 10 5.67 4.2 32 44 1002.1 0 12.4 15.7 20.3 52.9 43.6 149.1
24 14:20 42.5 10 5.78 4.5 35 43 1002.2 0 12.7 15.7 20.5 53.4 44.3 151.6
24 14:10 42 10 5.64 4.1 28 33 1002.3 0 12.4 15.7 20.2 52.7 43.4 148.4
24 14:00 41.6 11 6.09 5.2 28 50 1002.4 0 13.3 16.2 21.5 56.0 47.3 162.2
24 13:50 41.4 11 6.03 5 30 37 1002.6 0 13.2 16.2 21.4 55.7 47.0 160.9
24 13:40 41.1 11 5.94 4.8 22 24 1002.7 0 13.0 16.1 21.2 55.3 46.4 158.8
24 13:30 41.2 11 5.97 4.9 32 43 1002.9 0 13.1 16.1 21.3 55.5 46.6 159.5
24 13:20 41.4 11 6.03 5 26 32 1002.9 0 13.2 16.2 21.4 55.8 47.0 160.9
24 13:10 41.8 12 6.71 6.6 22 26 1003.1 0 14.5 16.8 23.0 60.2 52.5 180.4
24 13:00 41.7 11 6.12 5.3 32 44 1003.1 0 13.4 16.2 21.5 56.2 47.6 163.0
24 12:50 41.7 11 6.12 5.3 32 39 1003.2 0 13.4 16.2 21.5 56.2 47.6 163.1
24 12:40 41.5 12 6.61 6.4 28 35 1003.2 0 14.4 16.8 22.8 59.7 51.8 178.0
24 12:30 41.4 11 6.03 5 33 43 1003.4 0 13.2 16.2 21.4 55.8 47.0 161.0
24 12:20 41.8 11 6.15 5.3 30 35 1003.3 0 13.4 16.2 21.6 56.4 47.8 163.8
24 12:10 41.7 11 6.12 5.3 35 43 1003.5 0 13.4 16.2 21.6 56.2 47.6 163.1
24 12:00 42.3 11 6.3 5.7 35 50 1003.6 0 13.7 16.3 21.9 57.1 48.8 167.3
24 11:50 42 11 6.21 5.5 33 41 1003.7 0 13.5 16.3 21.7 56.7 48.2 165.2
24 11:40 42.3 11 6.3 5.7 32 39 1003.8 0 13.7 16.3 21.9 57.1 48.8 167.3
24 11:30 41.8 11 6.15 5.3 35 48 1003.9 0 13.4 16.3 21.6 56.4 47.8 163.9
24 11:20 41.4 12 6.57 6.3 35 39 1004 0 14.3 16.8 22.8 59.5 51.6 177.2
24 11:10 41.2 13 7.05 7.3 37 44 1004.2 0 15.2 17.3 24.1 63.1 55.9 192.2
24 11:00 40.7 13 6.88 6.9 32 46 1004.3 0 14.9 17.2 23.8 62.2 54.7 188.1
24 10:50 40.8 13 6.91 7 28 32 1004.4 0 15.0 17.2 23.9 62.4 54.9 188.8
24 10:40 39.8 13 6.57 6.2 33 37 1004.4 0 14.3 17.0 23.2 60.7 52.6 180.5
24 10:30 39.4 13 6.44 5.9 28 39 1004.4 0 14.1 17.0 23.0 60.0 51.7 177.3
24 10:20 39.2 13 6.38 5.7 33 39 1004.6 0 14.0 17.0 22.9 59.7 51.3 175.9
24 10:10 38.7 12 5.74 4.2 26 30 1004.6 0 12.7 16.3 21.3 55.6 46.0 157.4
24 10:00 38.4 12 5.65 4 19 24 1004.8 0 12.5 16.3 21.2 55.2 45.4 155.2
24 09:50 37.6 12 5.43 3.4 19 22 1004.9 0 12.1 16.2 20.8 54.1 44.0 150.0
24 09:40 35.7 13 5.33 3 13 15 1004.9 0 12.0 16.4 21.0 54.6 44.1 150.2
24 09:30 35 14 5.54 3.5 11 15 1005 0 12.4 16.8 21.7 56.6 46.3 157.9
24 09:20 33.4 15 5.46 3.3 9 11 1005.1 0 12.3 17.0 21.9 57.0 46.4 158.3
24 09:10 32.2 18 6.14 4.9 7 9 1005.1 0 13.7 17.9 24.1 63.0 53.4 182.8
24 09:00 30.8 20 6.33 5.3 7 9 1005 0 14.1 18.4 25.1 65.5 56.2 192.3
24 08:50 30 22 6.67 6 7 7 1005 0 14.9 19.0 26.3 68.8 60.0 205.8
24 08:40 29.4 23 6.75 6.1 6 7 1004.9 0 15.1 19.2 26.8 69.9 61.3 210.1
24 08:30 28.8 24 6.82 6.2 6 6 1004.9 0 15.2 19.4 27.2 71.0 62.4 214.1
24 08:20 28.2 26 7.15 6.9 0 0 1005 0 15.9 20.0 28.4 74.3 66.2 227.5
24 08:10 27.6 26 6.92 6.4 7 9 1004.8 0 15.5 19.8 27.9 72.8 64.3 220.7
24 08:00 27 28 7.21 6.9 9 11 1004.8 0 16.1 20.3 29.0 75.8 67.8 232.9
24 07:50 26 29 7.06 6.6 7 7 1004.7 0 15.8 20.3 28.8 75.4 67.1 230.1
24 07:40 25.7 30 7.18 6.8 0 0 1004.6 0 16.1 20.5 29.3 76.7 68.6 235.4
24 07:30 25.6 29 6.9 6.3 0 0 1004.4 0 15.5 20.2 28.5 74.4 65.7 225.3
24 07:20 25.6 31 7.38 7.2 0 0 1004.4 0 16.5 20.8 30.0 78.5 70.8 243.2
24 07:10 25.4 30 7.06 6.6 6 6 1004.2 0 15.9 20.4 29.0 75.9 67.5 231.7
24 07:00 24.6 34 7.65 7.7 9 11 1004 0 17.1 21.4 31.2 81.9 74.6 256.4
24 06:50 24 36 7.83 8 11 11 1004 0 17.5 21.8 32.1 84.1 77.1 265.3
24 06:40 23.7 38 8.13 8.5 6 6 1003.9 0 18.2 22.2 33.2 87.1 80.8 278.0
24 06:30 23.7 39 8.34 8.9 7 7 1003.8 0 18.6 22.5 33.9 89.0 83.1 286.3
24 06:20 23.7 38 8.13 8.5 6 7 1003.7 0 18.2 22.2 33.2 87.1 80.8 278.0
24 06:10 23.7 39 8.34 8.9 7 7 1003.7 0 18.6 22.5 33.9 89.0 83.1 286.3
24 06:00 23.5 41 8.67 9.5 4 9 1003.6 0 19.3 23.0 35.1 92.3 87.1 300.3
24 05:50 23.3 42 8.78 9.7 0 0 1003.5 0 19.5 23.2 35.6 93.5 88.6 305.4
24 05:40 23.2 42 8.73 9.6 0 0 1003.5 0 19.4 23.2 35.5 93.2 88.1 303.8
24 05:30 23.2 43 8.94 9.9 0 2 1003.5 0 19.9 23.5 36.2 95.2 90.6 312.4
24 05:20 23.1 43 8.89 9.8 0 0 1003.4 0 19.8 23.4 36.1 94.8 90.1 310.7
24 04:50 23.3 43 8.99 10 6 7 1003.5 0 20.0 23.5 36.4 95.5 91.0 314.0
24 04:40 23.6 42 8.93 9.9 6 6 1003.5 0 19.8 23.4 36.0 94.6 90.0 310.4
24 04:30 23.7 42 8.98 10 6 9 1003.6 0 19.9 23.4 36.1 95.0 90.5 312.1
24 04:20 23.4 44 9.25 10.5 0 4 1003.6 0 20.5 23.9 37.2 97.9 94.0 324.3
24 04:10 22.8 46 9.35 10.6 11 11 1003.6 0 20.8 24.2 37.9 99.6 95.9 330.9
24 04:00 22.8 46 9.35 10.6 0 0 1003.5 0 20.8 24.2 37.9 99.6 95.9 330.9
24 03:50 22.9 47 9.6 11 0 0 1003.5 0 21.3 24.5 38.7 101.9 98.8 341.0
24 03:40 22.8 47 9.55 10.9 0 0 1003.6 0 21.2 24.5 38.6 101.5 98.3 339.3
24 03:30 23 46 9.45 10.8 4 7 1003.7 0 21.0 24.3 38.2 100.3 96.8 334.3
24 03:20 23 47 9.66 11.1 7 7 1003.9 0 21.4 24.6 38.9 102.4 99.4 343.2
24 03:10 22.7 47 9.5 10.8 0 0 1004 0 21.1 24.5 38.5 101.2 97.8 337.7
24 03:00 22.6 48 9.64 11 0 0 1004.1 0 21.4 24.7 39.1 102.7 99.7 344.1
24 02:50 22.8 46 9.35 10.6 0 0 1004.2 0 20.8 24.2 37.9 99.6 95.9 331.1
24 02:40 24 49 10.66 12.6 7 9 1004.3 0 23.4 25.8 42.1 110.9 110.2 381.2
24 02:30 23.4 47 9.88 11.5 6 7 1004.4 0 21.8 24.8 39.6 104.1 101.6 350.8

Last Refresh: 24-Jan-2021 19:30:41

Most of the information presented on this site is sourced from the Bureau of Meteorology.  Copyright in all material sourced from the Bureau of Meteorology resides with the Commonwealth of Australia.